createdAt,value
2023-03-31T00:00:48.460Z,416.00
2023-03-31T00:01:48.532Z,417.00
2023-03-31T00:02:48.721Z,418.00
2023-03-31T00:03:48.848Z,418.00
2023-03-31T00:04:48.730Z,420.00
2023-03-31T00:05:48.713Z,417.00
2023-03-31T00:06:48.760Z,419.00
2023-03-31T00:07:48.836Z,418.00
2023-03-31T00:08:48.853Z,418.00
2023-03-31T00:09:48.879Z,417.00
2023-03-31T00:10:48.958Z,416.00
2023-03-31T00:11:48.971Z,417.00
2023-03-31T00:12:49.057Z,413.00
2023-03-31T00:13:49.190Z,414.00
2023-03-31T00:14:49.174Z,415.00
2023-03-31T00:15:49.246Z,415.00
2023-03-31T00:16:49.325Z,417.00
2023-03-31T00:17:49.393Z,419.00
2023-03-31T00:18:49.365Z,419.00
2023-03-31T00:19:49.425Z,420.00
2023-03-31T00:20:49.473Z,419.00
2023-03-31T00:21:49.477Z,419.00
2023-03-31T00:22:49.541Z,420.00
2023-03-31T00:23:49.590Z,420.00
2023-03-31T00:24:49.642Z,421.00
2023-03-31T00:25:49.699Z,423.00
2023-03-31T00:26:49.772Z,421.00
2023-03-31T00:27:49.819Z,419.00
2023-03-31T00:28:49.883Z,420.00
2023-03-31T00:29:49.943Z,423.00
2023-03-31T00:30:50.007Z,422.00
2023-03-31T00:31:50.097Z,421.00
2023-03-31T00:32:50.085Z,420.00
2023-03-31T00:33:50.106Z,422.00
2023-03-31T00:34:50.176Z,421.00
2023-03-31T00:35:50.222Z,418.00
2023-03-31T00:36:50.254Z,418.00
2023-03-31T00:37:50.349Z,417.00
2023-03-31T00:38:50.311Z,417.00
2023-03-31T00:39:50.413Z,415.00
2023-03-31T00:40:52.692Z,414.00
2023-03-31T00:41:50.443Z,413.00
2023-03-31T00:42:50.433Z,416.00
2023-03-31T00:43:50.448Z,416.00
2023-03-31T00:44:50.451Z,417.00
2023-03-31T00:45:50.430Z,416.00
2023-03-31T00:46:50.420Z,418.00
2023-03-31T00:47:50.493Z,419.00
2023-03-31T00:48:50.436Z,419.00
2023-03-31T00:49:50.379Z,421.00
2023-03-31T00:50:50.365Z,424.00
2023-03-31T00:51:50.409Z,425.00
2023-03-31T00:52:50.355Z,427.00
2023-03-31T00:53:50.369Z,428.00
2023-03-31T00:54:50.372Z,428.00
2023-03-31T00:55:50.316Z,426.00
2023-03-31T00:56:50.365Z,423.00
2023-03-31T00:57:50.340Z,425.00
2023-03-31T00:58:50.340Z,423.00
2023-03-31T00:59:50.333Z,424.00
2023-03-31T01:00:50.333Z,424.00
2023-03-31T01:01:50.318Z,424.00
2023-03-31T01:02:50.398Z,423.00
2023-03-31T01:03:50.400Z,424.00
2023-03-31T01:04:50.315Z,422.00
2023-03-31T01:05:50.283Z,421.00
2023-03-31T01:06:50.317Z,418.00
2023-03-31T01:07:50.261Z,420.00
2023-03-31T01:08:50.267Z,422.00
2023-03-31T01:09:50.223Z,422.00
2023-03-31T01:10:50.280Z,422.00
2023-03-31T01:11:50.241Z,423.00
2023-03-31T01:12:50.236Z,422.00
2023-03-31T01:13:50.241Z,420.00
2023-03-31T01:14:50.240Z,419.00
2023-03-31T01:15:50.185Z,418.00
2023-03-31T01:16:50.331Z,416.00
2023-03-31T01:17:50.420Z,418.00
2023-03-31T01:18:50.240Z,420.00
2023-03-31T01:19:50.260Z,419.00
2023-03-31T01:20:50.299Z,417.00
2023-03-31T01:21:50.355Z,417.00
2023-03-31T01:22:50.405Z,416.00
2023-03-31T01:23:50.470Z,417.00
2023-03-31T01:24:50.521Z,416.00
2023-03-31T01:25:50.566Z,417.00
2023-03-31T01:26:50.630Z,418.00
2023-03-31T01:27:50.724Z,418.00
2023-03-31T01:28:50.749Z,421.00
2023-03-31T01:29:50.773Z,421.00
2023-03-31T01:30:50.856Z,418.00
2023-03-31T01:31:50.906Z,416.00
2023-03-31T01:32:50.976Z,414.00
2023-03-31T01:33:50.992Z,414.00
2023-03-31T01:34:51.059Z,414.00
2023-03-31T01:35:51.137Z,412.00
2023-03-31T01:36:51.180Z,413.00
2023-03-31T01:37:51.213Z,413.00
2023-03-31T01:38:51.230Z,414.00
2023-03-31T01:39:51.299Z,414.00
2023-03-31T01:40:51.370Z,412.00
2023-03-31T01:41:51.421Z,410.00
2023-03-31T01:42:51.463Z,411.00
2023-03-31T01:43:51.533Z,412.00
2023-03-31T01:44:51.579Z,412.00
2023-03-31T01:45:51.684Z,413.00
2023-03-31T01:46:51.776Z,413.00
2023-03-31T01:47:51.748Z,412.00
2023-03-31T01:48:51.815Z,415.00
2023-03-31T01:49:51.891Z,416.00
2023-03-31T01:50:51.930Z,418.00
2023-03-31T01:51:52.040Z,417.00
2023-03-31T01:52:52.053Z,416.00
2023-03-31T01:53:52.113Z,419.00
2023-03-31T01:54:52.162Z,418.00
2023-03-31T01:55:52.230Z,415.00
2023-03-31T01:56:52.293Z,416.00
2023-03-31T01:57:52.347Z,415.00
2023-03-31T01:58:52.397Z,415.00
2023-03-31T01:59:52.464Z,413.00
2023-03-31T02:00:52.511Z,413.00
2023-03-31T02:01:52.585Z,413.00
2023-03-31T02:02:52.803Z,415.00
2023-03-31T02:03:52.669Z,415.00
2023-03-31T02:04:52.749Z,415.00
2023-03-31T02:05:52.755Z,414.00
2023-03-31T02:06:52.815Z,413.00
2023-03-31T02:07:52.922Z,412.00
2023-03-31T02:08:52.925Z,411.00
2023-03-31T02:09:52.986Z,410.00
2023-03-31T02:10:53.047Z,409.00
2023-03-31T02:11:53.108Z,406.00
2023-03-31T02:12:53.170Z,405.00
2023-03-31T02:13:53.222Z,406.00
2023-03-31T02:14:53.283Z,409.00
2023-03-31T02:15:53.346Z,412.00
2023-03-31T02:16:53.479Z,413.00
2023-03-31T02:17:53.581Z,413.00
2023-03-31T02:18:53.515Z,410.00
2023-03-31T02:19:53.612Z,408.00
2023-03-31T02:20:53.641Z,408.00
2023-03-31T02:21:53.729Z,408.00
2023-03-31T02:22:53.739Z,408.00
2023-03-31T02:23:53.751Z,408.00
2023-03-31T02:24:53.753Z,408.00
2023-03-31T02:25:53.822Z,408.00
2023-03-31T02:26:53.883Z,407.00
2023-03-31T02:27:53.920Z,408.00
2023-03-31T02:28:53.913Z,408.00
2023-03-31T02:29:53.914Z,408.00
2023-03-31T02:30:53.967Z,406.00
2023-03-31T02:31:54.045Z,405.00
2023-03-31T02:32:54.177Z,404.00
2023-03-31T02:33:54.167Z,403.00
2023-03-31T02:34:54.169Z,403.00
2023-03-31T02:35:54.399Z,405.00
2023-03-31T02:36:54.291Z,405.00
2023-03-31T02:37:54.300Z,406.00
2023-03-31T02:38:54.271Z,405.00
2023-03-31T02:39:54.317Z,407.00
2023-03-31T02:40:54.259Z,408.00
2023-03-31T02:41:54.269Z,408.00
2023-03-31T02:42:54.269Z,408.00
2023-03-31T02:43:54.317Z,406.00
2023-03-31T02:44:54.345Z,408.00
2023-03-31T02:45:54.480Z,409.00
2023-03-31T02:46:54.459Z,409.00
2023-03-31T02:47:54.610Z,407.00
2023-03-31T02:48:54.620Z,409.00
2023-03-31T02:49:54.700Z,408.00
2023-03-31T02:50:54.755Z,408.00
2023-03-31T02:51:54.806Z,407.00
2023-03-31T02:52:54.813Z,408.00
2023-03-31T02:53:54.826Z,405.00
2023-03-31T02:54:54.830Z,406.00
2023-03-31T02:55:54.811Z,405.00
2023-03-31T02:56:54.790Z,406.00
2023-03-31T02:57:54.779Z,406.00
2023-03-31T02:58:54.854Z,407.00
2023-03-31T02:59:54.909Z,407.00
2023-03-31T03:00:54.990Z,405.00
2023-03-31T03:01:55.027Z,405.00
2023-03-31T03:02:55.169Z,404.00
2023-03-31T03:03:55.139Z,405.00
2023-03-31T03:04:55.254Z,408.00
2023-03-31T03:05:55.267Z,408.00
2023-03-31T03:06:55.323Z,407.00
2023-03-31T03:07:55.368Z,404.00
2023-03-31T03:08:55.489Z,406.00
2023-03-31T03:09:55.439Z,404.00
2023-03-31T03:10:55.452Z,404.00
2023-03-31T03:11:55.450Z,404.00
2023-03-31T03:12:55.431Z,404.00
2023-03-31T03:13:55.468Z,406.00
2023-03-31T03:14:55.534Z,406.00
2023-03-31T03:15:55.584Z,406.00
2023-03-31T03:16:55.686Z,406.00
2023-03-31T03:17:55.638Z,405.00
2023-03-31T03:18:55.612Z,405.00
2023-03-31T03:19:55.614Z,407.00
2023-03-31T03:20:55.623Z,406.00
2023-03-31T03:21:55.683Z,406.00
2023-03-31T03:22:55.816Z,404.00
2023-03-31T03:23:55.821Z,405.00
2023-03-31T03:24:55.889Z,407.00
2023-03-31T03:25:55.942Z,406.00
2023-03-31T03:26:56.010Z,405.00
2023-03-31T03:27:56.084Z,406.00
2023-03-31T03:28:56.147Z,407.00
2023-03-31T03:29:56.168Z,406.00
2023-03-31T03:30:56.306Z,406.00
2023-03-31T03:31:56.311Z,406.00
2023-03-31T03:32:56.429Z,405.00
2023-03-31T03:33:56.476Z,406.00
2023-03-31T03:34:56.537Z,406.00
2023-03-31T03:35:56.638Z,406.00
2023-03-31T03:36:56.659Z,407.00
2023-03-31T03:37:56.663Z,409.00
2023-03-31T03:38:56.773Z,406.00
2023-03-31T03:39:56.775Z,406.00
2023-03-31T03:40:56.890Z,405.00
2023-03-31T03:41:56.951Z,405.00
2023-03-31T03:42:56.977Z,402.00
2023-03-31T03:43:57.048Z,405.00
2023-03-31T03:44:57.106Z,405.00
2023-03-31T03:45:57.192Z,402.00
2023-03-31T03:46:57.222Z,404.00
2023-03-31T03:47:57.261Z,404.00
2023-03-31T03:48:57.332Z,402.00
2023-03-31T03:49:57.401Z,402.00
2023-03-31T03:50:57.522Z,401.00
2023-03-31T03:51:57.514Z,400.00
2023-03-31T03:52:57.632Z,401.00
2023-03-31T03:53:57.692Z,401.00
2023-03-31T03:54:57.709Z,402.00
2023-03-31T03:55:57.789Z,401.00
2023-03-31T03:56:57.860Z,400.00
2023-03-31T03:57:57.897Z,399.00
2023-03-31T03:58:58.002Z,398.00
2023-03-31T03:59:57.986Z,398.00
2023-03-31T04:00:58.000Z,398.00
2023-03-31T04:01:58.049Z,398.00
2023-03-31T04:02:58.081Z,400.00
2023-03-31T04:03:58.003Z,402.00
2023-03-31T04:04:58.044Z,400.00
2023-03-31T04:05:57.961Z,399.00
2023-03-31T04:06:57.981Z,400.00
2023-03-31T04:07:57.978Z,403.00
2023-03-31T04:08:57.966Z,402.00
2023-03-31T04:09:57.982Z,402.00
2023-03-31T04:10:57.995Z,403.00
2023-03-31T04:11:58.008Z,404.00
2023-03-31T04:12:57.976Z,404.00
2023-03-31T04:13:57.972Z,405.00
2023-03-31T04:14:57.980Z,405.00
2023-03-31T04:15:58.014Z,406.00
2023-03-31T04:16:57.954Z,407.00
2023-03-31T04:17:58.214Z,411.00
2023-03-31T04:18:58.012Z,414.00
2023-03-31T04:19:58.073Z,415.00
2023-03-31T04:20:58.109Z,414.00
2023-03-31T04:21:58.231Z,416.00
2023-03-31T04:22:58.231Z,417.00
2023-03-31T04:23:58.298Z,416.00
2023-03-31T04:24:58.402Z,416.00
2023-03-31T04:25:58.405Z,416.00
2023-03-31T04:26:58.482Z,418.00
2023-03-31T04:27:58.511Z,418.00
2023-03-31T04:28:58.580Z,420.00
2023-03-31T04:29:58.617Z,419.00
2023-03-31T04:30:58.700Z,418.00
2023-03-31T04:31:58.877Z,418.00
2023-03-31T04:32:58.794Z,420.00
2023-03-31T04:33:58.821Z,423.00
2023-03-31T04:34:58.910Z,426.00
2023-03-31T04:35:59.037Z,428.00
2023-03-31T04:36:58.982Z,426.00
2023-03-31T04:37:59.359Z,424.00
2023-03-31T04:38:59.113Z,423.00
2023-03-31T04:39:59.167Z,421.00
2023-03-31T04:40:59.287Z,419.00
2023-03-31T04:41:59.494Z,418.00
2023-03-31T04:42:59.296Z,419.00
2023-03-31T04:43:59.246Z,418.00
2023-03-31T04:44:59.261Z,418.00
2023-03-31T04:45:59.364Z,416.00
2023-03-31T04:46:59.311Z,416.00
2023-03-31T04:47:59.400Z,415.00
2023-03-31T04:48:59.399Z,414.00
2023-03-31T04:49:59.495Z,414.00
2023-03-31T04:50:59.551Z,414.00
2023-03-31T04:51:59.631Z,412.00
2023-03-31T04:52:59.674Z,414.00
2023-03-31T04:53:59.721Z,413.00
2023-03-31T04:54:59.782Z,414.00
2023-03-31T04:55:59.807Z,415.00
2023-03-31T04:56:59.956Z,413.00
2023-03-31T04:57:59.924Z,413.00
2023-03-31T04:58:59.966Z,415.00
2023-03-31T05:00:00.041Z,417.00
2023-03-31T05:01:00.190Z,418.00
2023-03-31T05:02:00.255Z,416.00
2023-03-31T05:03:00.318Z,415.00
2023-03-31T05:04:00.459Z,416.00
2023-03-31T05:05:00.369Z,417.00
2023-03-31T05:06:00.428Z,416.00
2023-03-31T05:07:00.482Z,414.00
2023-03-31T05:08:00.555Z,415.00
2023-03-31T05:09:00.600Z,415.00
2023-03-31T05:10:00.632Z,415.00
2023-03-31T05:11:00.717Z,416.00
2023-03-31T05:12:00.726Z,417.00
2023-03-31T05:13:00.786Z,418.00
2023-03-31T05:14:00.837Z,416.00
2023-03-31T05:15:00.915Z,416.00
2023-03-31T05:16:00.940Z,421.00
2023-03-31T05:17:00.978Z,418.00
2023-03-31T05:18:00.960Z,416.00
2023-03-31T05:19:00.992Z,415.00
2023-03-31T05:20:00.915Z,416.00
2023-03-31T05:21:00.992Z,417.00
2023-03-31T05:22:00.995Z,416.00
2023-03-31T05:23:01.081Z,417.00
2023-03-31T05:24:01.232Z,417.00
2023-03-31T05:25:01.239Z,417.00
2023-03-31T05:26:01.288Z,415.00
2023-03-31T05:27:01.295Z,415.00
2023-03-31T05:28:01.368Z,413.00
2023-03-31T05:29:01.406Z,412.00
2023-03-31T05:30:01.579Z,413.00
2023-03-31T05:31:01.709Z,412.00
2023-03-31T05:32:01.613Z,467.00
2023-03-31T05:33:01.627Z,546.00
2023-03-31T05:34:01.559Z,532.00
2023-03-31T05:35:01.600Z,518.00
2023-03-31T05:36:01.727Z,517.00
2023-03-31T05:37:01.621Z,523.00
2023-03-31T05:38:01.686Z,533.00
2023-03-31T05:39:01.653Z,546.00
2023-03-31T05:40:01.662Z,593.00
2023-03-31T05:41:01.696Z,594.00
2023-03-31T05:42:01.652Z,590.00
2023-03-31T05:43:01.678Z,595.00
2023-03-31T05:44:01.621Z,592.00
2023-03-31T05:45:01.708Z,662.00
2023-03-31T05:46:01.699Z,597.00
2023-03-31T05:47:01.743Z,597.00
2023-03-31T05:48:01.743Z,602.00
2023-03-31T05:49:01.757Z,596.00
2023-03-31T05:50:01.866Z,589.00
2023-03-31T05:51:01.944Z,581.00
2023-03-31T05:52:01.967Z,566.00
2023-03-31T05:53:01.950Z,546.00
2023-03-31T05:54:02.044Z,542.00
2023-03-31T05:55:02.004Z,542.00
2023-03-31T05:56:02.037Z,541.00
2023-03-31T05:57:02.034Z,538.00
2023-03-31T05:58:02.030Z,531.00
2023-03-31T05:59:02.015Z,524.00
2023-03-31T06:00:02.044Z,515.00
2023-03-31T06:01:02.075Z,508.00
2023-03-31T06:02:02.196Z,503.00
2023-03-31T06:03:02.399Z,500.00
2023-03-31T06:04:02.121Z,496.00
2023-03-31T06:05:02.119Z,494.00
2023-03-31T06:06:02.138Z,489.00
2023-03-31T06:07:02.147Z,484.00
2023-03-31T06:08:02.136Z,477.00
2023-03-31T06:09:02.220Z,474.00
2023-03-31T06:10:02.274Z,470.00
2023-03-31T06:11:02.251Z,467.00
2023-03-31T06:12:02.324Z,465.00
2023-03-31T06:13:05.983Z,462.00
2023-03-31T06:14:02.313Z,464.00
2023-03-31T06:15:02.701Z,463.00
2023-03-31T06:16:02.370Z,462.00
2023-03-31T06:17:02.348Z,462.00
2023-03-31T06:18:02.341Z,459.00
2023-03-31T06:19:02.318Z,457.00
2023-03-31T06:20:09.910Z,453.00
2023-03-31T06:21:03.481Z,453.00
2023-03-31T06:22:02.348Z,450.00
2023-03-31T06:23:03.221Z,450.00
2023-03-31T06:24:02.699Z,449.00
2023-03-31T06:25:02.378Z,450.00
2023-03-31T06:26:03.620Z,450.00
2023-03-31T06:27:02.474Z,448.00
2023-03-31T06:28:02.470Z,447.00
2023-03-31T06:29:02.800Z,445.00
2023-03-31T06:30:02.582Z,443.00
2023-03-31T06:31:02.777Z,444.00
2023-03-31T06:32:02.837Z,446.00
2023-03-31T06:33:02.753Z,443.00
2023-03-31T06:34:02.833Z,440.00
2023-03-31T06:35:02.856Z,439.00
2023-03-31T06:36:02.939Z,438.00
2023-03-31T06:37:02.974Z,440.00
2023-03-31T06:38:02.938Z,437.00
2023-03-31T06:39:02.995Z,439.00
2023-03-31T06:40:03.076Z,441.00
2023-03-31T06:41:03.170Z,443.00
2023-03-31T06:42:03.192Z,444.00
2023-03-31T06:43:03.303Z,443.00
2023-03-31T06:44:03.418Z,446.00
2023-03-31T06:45:03.480Z,444.00
2023-03-31T06:46:03.509Z,441.00
2023-03-31T06:47:03.488Z,443.00
2023-03-31T06:48:03.593Z,445.00
2023-03-31T06:49:03.611Z,450.00
2023-03-31T06:50:03.653Z,446.00
2023-03-31T06:51:03.712Z,443.00
2023-03-31T06:52:03.780Z,442.00
2023-03-31T06:53:03.833Z,441.00
2023-03-31T06:54:03.950Z,438.00
2023-03-31T06:55:04.050Z,436.00
2023-03-31T06:56:04.151Z,435.00
2023-03-31T06:57:04.121Z,435.00
2023-03-31T06:58:04.129Z,435.00
2023-03-31T06:59:04.203Z,437.00
2023-03-31T07:00:04.264Z,438.00
2023-03-31T07:01:04.937Z,437.00
2023-03-31T07:02:04.423Z,439.00
2023-03-31T07:03:04.566Z,437.00
2023-03-31T07:04:04.525Z,435.00
2023-03-31T07:05:04.578Z,434.00
2023-03-31T07:06:04.591Z,433.00
2023-03-31T07:07:04.522Z,429.00
2023-03-31T07:08:04.492Z,430.00
2023-03-31T07:09:04.602Z,428.00
2023-03-31T07:10:04.726Z,428.00
2023-03-31T07:11:05.370Z,428.00
2023-03-31T07:12:04.734Z,430.00
2023-03-31T07:13:05.800Z,430.00
2023-03-31T07:14:04.859Z,427.00
2023-03-31T07:15:04.955Z,428.00
2023-03-31T07:16:05.516Z,428.00
2023-03-31T07:17:05.054Z,424.00
2023-03-31T07:18:05.189Z,424.00
2023-03-31T07:19:05.199Z,423.00
2023-03-31T07:20:05.238Z,420.00
2023-03-31T07:21:09.032Z,423.00
2023-03-31T07:22:05.301Z,425.00
2023-03-31T07:23:05.280Z,424.00
2023-03-31T07:24:05.328Z,423.00
2023-03-31T07:25:05.286Z,422.00
2023-03-31T07:26:05.317Z,423.00
2023-03-31T07:27:05.266Z,426.00
2023-03-31T07:28:05.267Z,426.00
2023-03-31T07:29:05.315Z,426.00
2023-03-31T07:30:05.271Z,423.00
2023-03-31T07:31:05.450Z,419.00
2023-03-31T07:32:05.303Z,419.00
2023-03-31T07:33:05.370Z,448.00
2023-03-31T07:34:05.330Z,514.00
2023-03-31T07:35:05.283Z,597.00
2023-03-31T07:36:12.562Z,656.00
2023-03-31T07:37:06.341Z,667.00
2023-03-31T07:38:05.858Z,678.00
2023-03-31T07:39:05.297Z,684.00
2023-03-31T07:40:05.255Z,688.00
2023-03-31T07:41:09.559Z,700.00
2023-03-31T07:42:05.253Z,713.00
2023-03-31T07:43:05.258Z,726.00
2023-03-31T07:44:05.232Z,739.00
2023-03-31T07:45:09.983Z,761.00
2023-03-31T07:46:17.331Z,776.00
2023-03-31T07:47:05.208Z,786.00
2023-03-31T07:48:05.232Z,802.00
2023-03-31T07:49:05.232Z,811.00
2023-03-31T07:50:05.210Z,817.00
2023-03-31T07:51:05.556Z,819.00
2023-03-31T07:52:05.225Z,830.00
2023-03-31T07:53:05.192Z,847.00
2023-03-31T07:54:05.197Z,867.00
2023-03-31T07:55:05.167Z,874.00
2023-03-31T07:56:05.441Z,885.00
2023-03-31T07:57:05.215Z,895.00
2023-03-31T07:58:05.196Z,901.00
2023-03-31T07:59:05.204Z,911.00
2023-03-31T08:00:05.137Z,921.00
2023-03-31T08:01:05.426Z,922.00
2023-03-31T08:02:05.160Z,929.00
2023-03-31T08:03:05.184Z,938.00
2023-03-31T08:04:05.212Z,951.00
2023-03-31T08:05:05.138Z,989.00
2023-03-31T08:06:05.287Z,991.00
2023-03-31T08:07:05.097Z,997.00
2023-03-31T08:08:05.107Z,1011.00
2023-03-31T08:09:05.116Z,1026.00
2023-03-31T08:10:05.116Z,1035.00
2023-03-31T08:11:05.275Z,1035.00
2023-03-31T08:12:05.074Z,1034.00
2023-03-31T08:13:05.068Z,1034.00
2023-03-31T08:14:05.068Z,1033.00
2023-03-31T08:15:05.057Z,1030.00
2023-03-31T08:16:05.315Z,1028.00
2023-03-31T08:17:05.061Z,1030.00
2023-03-31T08:18:05.089Z,1041.00
2023-03-31T08:19:05.027Z,1055.00
2023-03-31T08:20:07.825Z,1054.00
2023-03-31T08:21:05.368Z,1053.00
2023-03-31T08:22:04.990Z,1052.00
2023-03-31T08:23:05.018Z,1052.00
2023-03-31T08:24:05.008Z,1079.00
2023-03-31T08:25:04.975Z,1133.00
2023-03-31T08:26:05.266Z,1126.00
2023-03-31T08:28:05.963Z,1104.00
2023-03-31T08:29:05.207Z,1090.00
2023-03-31T08:30:04.927Z,1044.00
2023-03-31T08:31:04.939Z,1018.00
2023-03-31T08:32:05.113Z,995.00
2023-03-31T08:33:04.954Z,985.00
2023-03-31T08:34:04.919Z,976.00
2023-03-31T08:35:04.926Z,962.00
2023-03-31T08:36:05.060Z,928.00
2023-03-31T08:37:05.961Z,924.00
2023-03-31T08:38:04.884Z,908.00
2023-03-31T08:39:04.959Z,863.00
2023-03-31T08:40:04.923Z,865.00
2023-03-31T08:41:04.880Z,865.00
2023-03-31T08:42:04.845Z,901.00
2023-03-31T08:43:04.855Z,854.00
2023-03-31T08:44:04.848Z,839.00
2023-03-31T08:45:05.005Z,826.00
2023-03-31T08:46:05.109Z,818.00
2023-03-31T08:47:06.030Z,792.00
2023-03-31T08:48:07.414Z,784.00
2023-03-31T08:49:04.933Z,781.00
2023-03-31T08:50:05.066Z,774.00
2023-03-31T08:51:05.087Z,762.00
2023-03-31T08:52:04.902Z,750.00
2023-03-31T08:53:04.964Z,730.00
2023-03-31T08:54:04.918Z,728.00
2023-03-31T08:55:04.905Z,721.00
2023-03-31T08:56:05.022Z,711.00
2023-03-31T08:57:04.932Z,700.00
2023-03-31T08:58:04.903Z,699.00
2023-03-31T08:59:04.903Z,692.00
2023-03-31T09:00:04.842Z,687.00
2023-03-31T09:01:05.067Z,675.00
2023-03-31T09:02:04.882Z,665.00
2023-03-31T09:03:07.288Z,661.00
2023-03-31T09:04:06.413Z,652.00
2023-03-31T09:05:04.858Z,638.00
2023-03-31T09:06:04.794Z,631.00
2023-03-31T09:07:04.806Z,623.00
2023-03-31T09:08:04.751Z,616.00
2023-03-31T09:09:04.799Z,608.00
2023-03-31T09:10:04.875Z,603.00
2023-03-31T09:11:04.852Z,603.00
2023-03-31T09:12:04.874Z,599.00
2023-03-31T09:13:05.041Z,593.00
2023-03-31T09:14:05.000Z,586.00
2023-03-31T09:15:05.194Z,580.00
2023-03-31T09:16:05.466Z,579.00
2023-03-31T09:17:05.167Z,575.00
2023-03-31T09:18:05.699Z,572.00
2023-03-31T09:19:05.236Z,572.00
2023-03-31T09:20:05.210Z,568.00
2023-03-31T09:21:05.338Z,564.00
2023-03-31T09:22:05.204Z,564.00
2023-03-31T09:23:05.254Z,563.00
2023-03-31T09:24:05.190Z,562.00
2023-03-31T09:25:05.173Z,556.00
2023-03-31T09:26:05.348Z,555.00
2023-03-31T09:27:05.189Z,559.00
2023-03-31T09:28:05.168Z,567.00
2023-03-31T09:29:05.202Z,608.00
2023-03-31T09:30:05.248Z,669.00
2023-03-31T09:31:05.226Z,689.00
2023-03-31T09:32:05.162Z,699.00
2023-03-31T09:33:05.298Z,779.00
2023-03-31T09:34:05.231Z,752.00
2023-03-31T09:35:05.186Z,674.00
2023-03-31T09:36:05.398Z,658.00
2023-03-31T09:37:05.263Z,662.00
2023-03-31T09:38:05.256Z,704.00
2023-03-31T09:39:05.508Z,665.00
2023-03-31T09:40:05.484Z,656.00
2023-03-31T09:41:05.350Z,659.00
2023-03-31T09:42:05.459Z,663.00
2023-03-31T09:43:05.422Z,665.00
2023-03-31T09:44:05.497Z,672.00
2023-03-31T09:45:05.488Z,675.00
2023-03-31T09:46:14.947Z,679.00
2023-03-31T09:47:07.742Z,682.00
2023-03-31T09:48:05.520Z,687.00
2023-03-31T09:49:05.491Z,693.00
2023-03-31T09:50:05.506Z,692.00
2023-03-31T09:51:05.513Z,695.00
2023-03-31T09:52:05.522Z,699.00
2023-03-31T09:53:05.474Z,703.00
2023-03-31T09:54:05.445Z,706.00
2023-03-31T09:55:05.430Z,707.00
2023-03-31T09:56:05.612Z,709.00
2023-03-31T09:57:05.477Z,713.00
2023-03-31T09:58:05.380Z,727.00
2023-03-31T09:59:05.461Z,722.00
2023-03-31T10:00:05.464Z,723.00
2023-03-31T10:01:05.666Z,730.00
2023-03-31T10:02:06.265Z,731.00
2023-03-31T10:03:05.422Z,731.00
2023-03-31T10:04:05.490Z,731.00
2023-03-31T10:05:05.329Z,730.00
2023-03-31T10:06:05.513Z,731.00
2023-03-31T10:07:05.425Z,733.00
2023-03-31T10:08:06.221Z,735.00
2023-03-31T10:09:05.333Z,738.00
2023-03-31T10:10:05.343Z,739.00
2023-03-31T10:11:05.551Z,738.00
2023-03-31T10:12:05.461Z,741.00
2023-03-31T10:13:05.343Z,826.00
2023-03-31T10:14:05.861Z,773.00
2023-03-31T10:15:05.299Z,760.00
2023-03-31T10:16:05.374Z,756.00
2023-03-31T10:17:05.421Z,754.00
2023-03-31T10:18:05.514Z,748.00
2023-03-31T10:19:05.536Z,745.00
2023-03-31T10:20:05.593Z,749.00
2023-03-31T10:21:05.875Z,747.00
2023-03-31T10:22:05.698Z,746.00
2023-03-31T10:23:05.780Z,749.00
2023-03-31T10:24:05.944Z,749.00
2023-03-31T10:25:05.886Z,751.00
2023-03-31T10:26:06.052Z,762.00
2023-03-31T10:27:06.358Z,763.00
2023-03-31T10:28:06.060Z,758.00
2023-03-31T10:29:06.109Z,756.00
2023-03-31T10:30:06.163Z,693.00
2023-03-31T10:31:06.800Z,683.00
2023-03-31T10:32:06.279Z,662.00
2023-03-31T10:33:19.176Z,659.00
2023-03-31T10:34:07.317Z,661.00
2023-03-31T10:35:06.318Z,660.00
2023-03-31T10:36:06.379Z,663.00
2023-03-31T10:37:06.240Z,665.00
2023-03-31T10:38:06.490Z,667.00
2023-03-31T10:39:06.298Z,675.00
2023-03-31T10:40:06.228Z,674.00
2023-03-31T10:41:06.392Z,674.00
2023-03-31T10:42:06.241Z,673.00
2023-03-31T10:43:06.199Z,667.00
2023-03-31T10:44:06.247Z,658.00
2023-03-31T10:45:06.222Z,657.00
2023-03-31T10:46:06.200Z,658.00
2023-03-31T10:47:06.303Z,660.00
2023-03-31T10:48:06.298Z,662.00
2023-03-31T10:49:06.181Z,657.00
2023-03-31T10:50:06.196Z,653.00
2023-03-31T10:51:06.394Z,653.00
2023-03-31T10:52:06.164Z,649.00
2023-03-31T10:53:06.174Z,649.00
2023-03-31T10:54:06.162Z,650.00
2023-03-31T10:55:06.122Z,647.00
2023-03-31T10:56:06.087Z,640.00
2023-03-31T10:57:06.170Z,635.00
2023-03-31T10:58:06.163Z,643.00
2023-03-31T10:59:06.579Z,647.00
2023-03-31T11:00:06.134Z,644.00
2023-03-31T11:01:06.325Z,642.00
2023-03-31T11:02:06.188Z,645.00
2023-03-31T11:03:06.596Z,649.00
2023-03-31T11:04:06.176Z,651.00
2023-03-31T11:05:06.095Z,648.00
2023-03-31T11:06:06.054Z,648.00
2023-03-31T11:07:06.028Z,651.00
2023-03-31T11:08:06.105Z,648.00
2023-03-31T11:09:06.069Z,650.00
2023-03-31T11:10:06.076Z,654.00
2023-03-31T11:11:06.167Z,658.00
2023-03-31T11:12:06.032Z,662.00
2023-03-31T11:13:06.137Z,661.00
2023-03-31T11:14:06.054Z,657.00
2023-03-31T11:15:06.003Z,660.00
2023-03-31T11:16:06.420Z,662.00
2023-03-31T11:17:06.327Z,667.00
2023-03-31T11:18:06.043Z,666.00
2023-03-31T11:19:06.107Z,664.00
2023-03-31T11:20:06.125Z,664.00
2023-03-31T11:21:06.484Z,663.00
2023-03-31T11:22:06.286Z,663.00
2023-03-31T11:23:06.250Z,659.00
2023-03-31T11:24:06.329Z,658.00
2023-03-31T11:25:06.377Z,651.00
2023-03-31T11:26:06.384Z,645.00
2023-03-31T11:27:06.380Z,640.00
2023-03-31T11:28:06.410Z,631.00
2023-03-31T11:29:06.455Z,621.00
2023-03-31T11:30:06.419Z,618.00
2023-03-31T11:31:06.577Z,610.00
2023-03-31T11:32:06.466Z,604.00
2023-03-31T11:33:06.520Z,600.00
2023-03-31T11:34:06.423Z,594.00
2023-03-31T11:35:06.462Z,588.00
2023-03-31T11:36:06.535Z,580.00
2023-03-31T11:37:06.400Z,578.00
2023-03-31T11:38:06.449Z,572.00
2023-03-31T11:39:06.419Z,565.00
2023-03-31T11:40:06.436Z,562.00
2023-03-31T11:41:06.553Z,559.00
2023-03-31T11:42:06.446Z,556.00
2023-03-31T11:43:06.453Z,546.00
2023-03-31T11:44:06.417Z,541.00
2023-03-31T11:45:06.460Z,537.00
2023-03-31T11:46:06.716Z,537.00
2023-03-31T11:47:06.511Z,535.00
2023-03-31T11:48:07.855Z,533.00
2023-03-31T11:49:06.486Z,531.00
2023-03-31T11:50:06.500Z,529.00
2023-03-31T11:51:06.521Z,526.00
2023-03-31T11:52:06.485Z,521.00
2023-03-31T11:53:06.522Z,518.00
2023-03-31T11:54:06.514Z,519.00
2023-03-31T11:55:06.582Z,512.00
2023-03-31T11:56:06.697Z,508.00
2023-03-31T11:57:06.591Z,506.00
2023-03-31T11:58:06.548Z,505.00
2023-03-31T11:59:06.599Z,504.00
2023-03-31T12:00:06.631Z,503.00
2023-03-31T12:01:06.663Z,501.00
2023-03-31T12:02:06.692Z,501.00
2023-03-31T12:03:06.814Z,500.00
2023-03-31T12:04:06.758Z,499.00
2023-03-31T12:05:06.806Z,497.00
2023-03-31T12:06:06.938Z,496.00
2023-03-31T12:07:06.774Z,498.00
2023-03-31T12:08:06.783Z,498.00
2023-03-31T12:09:06.796Z,498.00
2023-03-31T12:10:06.842Z,498.00
2023-03-31T12:11:06.851Z,497.00
2023-03-31T12:12:06.852Z,495.00
2023-03-31T12:13:06.871Z,495.00
2023-03-31T12:14:06.879Z,495.00
2023-03-31T12:15:06.875Z,492.00
2023-03-31T12:16:07.062Z,491.00
2023-03-31T12:17:06.855Z,491.00
2023-03-31T12:18:06.926Z,491.00
2023-03-31T12:19:06.896Z,488.00
2023-03-31T12:20:07.003Z,488.00
2023-03-31T12:21:06.952Z,489.00
2023-03-31T12:22:06.947Z,490.00
2023-03-31T12:23:06.991Z,489.00
2023-03-31T12:24:08.377Z,487.00
2023-03-31T12:25:07.009Z,485.00
2023-03-31T12:26:07.215Z,485.00
2023-03-31T12:27:07.048Z,485.00
2023-03-31T12:28:07.031Z,480.00
2023-03-31T12:29:07.071Z,480.00